Time;durP1;ratioP1;P1;durP2;ratioP2;P2;SDS_P1;SDS_P2;PMS_P1;PMS_P2;Temp;Humidity;BMP_temperature;BMP_pressure;BME280_temperature;BME280_humidity;BME280_pressure;Samples;Min_cycle;Max_cycle;Signal;HPM_P1;HPM_P2
2021/04/10 00:00:08;;;;;;;8.68;5.95;;;;;;;;;;2041135;29;20261;-65
2021/04/10 00:01:09;;;;;;;8.00;6.45;;;;;;;;;;2040664;29;20176;-61
2021/04/10 00:02:11;;;;;;;11.82;7.22;;;;;;;;;;2040087;29;20184;-64
2021/04/10 00:03:12;;;;;;;12.43;7.43;;;;;;;;;;2040490;29;20171;-63
2021/04/10 00:04:13;;;;;;;10.77;6.80;;;;;;;;;;2039432;29;20188;-64
2021/04/10 00:05:13;;;;;;;9.18;6.88;;;;;;;;;;2040846;29;20176;-65
2021/04/10 00:06:13;;;;;;;13.60;6.40;;;;;;;;;;2040287;29;20555;-64
2021/04/10 00:07:14;;;;;;;10.73;6.60;;;;;;;;;;2040017;29;20207;-65
2021/04/10 00:08:14;;;;;;;9.32;6.72;;;;;;;;;;2040332;29;20247;-65
2021/04/10 00:09:14;;;;;;;9.95;7.43;;;;;;;;;;2041921;29;20191;-64
2021/04/10 00:10:15;;;;;;;11.15;6.95;;;;;;;;;;2042757;29;20176;-64
2021/04/10 00:11:15;;;;;;;11.32;6.97;;;;;;;;;;2042482;29;20180;-64
2021/04/10 00:12:15;;;;;;;14.00;6.85;;;;;;;;;;2042055;29;20266;-65
2021/04/10 00:13:16;;;;;;;9.32;6.28;;;;;;;;;;2049149;29;20175;-65
2021/04/10 00:14:16;;;;;;;9.32;7.47;;;;;;;;;;2049847;29;20517;-65
2021/04/10 00:15:17;;;;;;;11.98;6.80;;;;;;;;;;2045386;29;20222;-63
2021/04/10 00:16:17;;;;;;;8.10;7.17;;;;;;;;;;2048471;29;20182;-59
2021/04/10 00:17:17;;;;;;;9.80;6.93;;;;;;;;;;2038313;29;20223;-63
2021/04/10 00:18:18;;;;;;;8.32;6.65;;;;;;;;;;2041888;29;20176;-64
2021/04/10 00:19:18;;;;;;;17.55;7.35;;;;;;;;;;2042369;29;20820;-64
2021/04/10 00:20:19;;;;;;;8.43;7.00;;;;;;;;;;2042296;29;20176;-63
2021/04/10 00:21:19;;;;;;;10.55;7.10;;;;;;;;;;2041805;29;20634;-64
2021/04/10 00:22:20;;;;;;;9.27;6.93;;;;;;;;;;2034485;29;20173;-65
2021/04/10 00:23:20;;;;;;;7.80;6.78;;;;;;;;;;2033522;29;20176;-65
2021/04/10 00:24:20;;;;;;;13.50;7.53;;;;;;;;;;2033980;29;20185;-64
2021/04/10 00:25:21;;;;;;;9.15;7.20;;;;;;;;;;2036657;29;20178;-64
2021/04/10 00:26:22;;;;;;;11.75;6.78;;;;;;;;;;2042258;29;20515;-62
2021/04/10 00:27:22;;;;;;;10.60;6.97;;;;;;;;;;2042362;29;20276;-65
2021/04/10 00:28:22;;;;;;;12.65;6.75;;;;;;;;;;2039870;29;20867;-64
2021/04/10 00:29:22;;;;;;;10.02;7.93;;;;;;;;;;2041310;29;20819;-59
2021/04/10 00:30:23;;;;;;;16.40;12.23;;;;;;;;;;2042108;29;20195;-63
2021/04/10 00:31:23;;;;;;;10.48;7.68;;;;;;;;;;2041632;29;20167;-65
2021/04/10 00:32:23;;;;;;;9.75;6.78;;;;;;;;;;2041645;29;20202;-63
2021/04/10 00:33:24;;;;;;;13.73;9.93;;;;;;;;;;2049031;29;20168;-63
2021/04/10 00:34:24;;;;;;;12.35;9.55;;;;;;;;;;2049276;29;20179;-58
2021/04/10 00:35:24;;;;;;;20.75;16.60;;;;;;;;;;2042223;29;20263;-64
2021/04/10 00:36:24;;;;;;;13.45;8.77;;;;;;;;;;2041561;29;20206;-64
2021/04/10 00:37:25;;;;;;;15.43;10.23;;;;;;;;;;2041757;29;20274;-63
2021/04/10 00:38:27;;;;;;;12.77;10.13;;;;;;;;;;2041557;29;20258;-65
2021/04/10 00:39:27;;;;;;;11.90;8.05;;;;;;;;;;2041577;29;20215;-64
2021/04/10 00:40:27;;;;;;;13.90;8.77;;;;;;;;;;2041545;29;20566;-65
2021/04/10 00:41:27;;;;;;;16.45;11.30;;;;;;;;;;2042509;29;20190;-66
2021/04/10 00:42:28;;;;;;;18.15;11.52;;;;;;;;;;2042074;29;20274;-64
2021/04/10 00:43:28;;;;;;;13.48;10.68;;;;;;;;;;2041597;29;20180;-64
2021/04/10 00:44:28;;;;;;;11.05;9.88;;;;;;;;;;2041495;29;20176;-64
2021/04/10 00:45:29;;;;;;;12.85;9.23;;;;;;;;;;2041541;29;20180;-66
2021/04/10 00:46:29;;;;;;;16.80;10.52;;;;;;;;;;2041928;29;20179;-60
2021/04/10 00:47:29;;;;;;;12.70;10.27;;;;;;;;;;2042060;29;20641;-65
2021/04/10 00:48:29;;;;;;;10.80;8.30;;;;;;;;;;2049521;29;20854;-58
2021/04/10 00:49:30;;;;;;;11.38;8.25;;;;;;;;;;2041009;29;20306;-64
2021/04/10 00:50:30;;;;;;;11.57;8.82;;;;;;;;;;2032541;29;20195;-63
2021/04/10 00:51:30;;;;;;;12.73;9.07;;;;;;;;;;2033518;29;20216;-64
2021/04/10 00:52:32;;;;;;;15.93;9.50;;;;;;;;;;2041596;29;20182;-64
2021/04/10 00:53:33;;;;;;;9.65;8.60;;;;;;;;;;2041728;29;20187;-65
2021/04/10 00:54:34;;;;;;;15.75;9.57;;;;;;;;;;2042415;29;20180;-64
2021/04/10 00:55:35;;;;;;;12.50;8.77;;;;;;;;;;2041966;29;20259;-65
2021/04/10 00:56:36;;;;;;;10.80;8.40;;;;;;;;;;2041826;29;20649;-64
2021/04/10 00:57:36;;;;;;;11.45;8.25;;;;;;;;;;2040930;29;20175;-64
2021/04/10 00:58:36;;;;;;;12.57;8.77;;;;;;;;;;2042282;29;20246;-64
2021/04/10 00:59:37;;;;;;;11.37;9.17;;;;;;;;;;2041336;29;20191;-66
2021/04/10 01:00:38;;;;;;;16.08;9.63;;;;;;;;;;2041334;29;20292;-65
2021/04/10 01:01:38;;;;;;;15.35;10.30;;;;;;;;;;2041962;29;20191;-65
2021/04/10 01:02:39;;;;;;;11.52;9.45;;;;;;;;;;2042327;29;20823;-66
2021/04/10 01:03:40;;;;;;;13.15;9.40;;;;;;;;;;2041674;29;20168;-66
2021/04/10 01:04:40;;;;;;;14.82;9.10;;;;;;;;;;2041815;29;20322;-65
2021/04/10 01:05:41;;;;;;;12.80;10.15;;;;;;;;;;2041927;29;20211;-65
2021/04/10 01:06:41;;;;;;;12.93;9.63;;;;;;;;;;2042106;29;20200;-64
2021/04/10 01:07:41;;;;;;;11.40;9.73;;;;;;;;;;2049478;29;20218;-64
2021/04/10 01:08:42;;;;;;;12.23;9.55;;;;;;;;;;2049639;29;20214;-64
2021/04/10 01:09:46;;;;;;;14.38;10.30;;;;;;;;;;2042146;29;20665;-64
2021/04/10 01:10:46;;;;;;;14.45;9.55;;;;;;;;;;2040772;29;20191;-63
2021/04/10 01:11:49;;;;;;;16.42;9.50;;;;;;;;;;2041202;29;20182;-63
2021/04/10 01:12:52;;;;;;;12.98;9.52;;;;;;;;;;2046259;28;20194;-64
2021/04/10 01:13:56;;;;;;;12.20;9.73;;;;;;;;;;2046335;29;20186;-61
2021/04/10 01:15:01;;;;;;;13.50;10.38;;;;;;;;;;2045403;29;20186;-63
2021/04/10 01:16:22;;;;;;;12.73;10.25;;;;;;;;;;2038843;29;20180;-63
2021/04/10 01:17:26;;;;;;;12.82;9.75;;;;;;;;;;2039345;29;20191;-64
2021/04/10 01:18:29;;;;;;;11.95;9.20;;;;;;;;;;2041199;29;20188;-64
2021/04/10 01:19:48;;;;;;;16.90;9.93;;;;;;;;;;2033030;29;20695;-64
2021/04/10 01:21:05;;;;;;;12.13;9.55;;;;;;;;;;2042774;29;20276;-64
2021/04/10 01:22:09;;;;;;;10.93;9.50;;;;;;;;;;2040397;29;20543;-64
2021/04/10 01:23:21;;;;;;;18.55;9.90;;;;;;;;;;2041394;29;20692;-65
2021/04/10 01:24:40;;;;;;;12.90;9.75;;;;;;;;;;2041456;29;20187;-65
2021/04/10 01:25:50;;;;;;;15.52;10.55;;;;;;;;;;2041910;29;20210;-63
2021/04/10 01:26:52;;;;;;;15.07;9.93;;;;;;;;;;2040405;29;20172;-64
2021/04/10 01:27:57;;;;;;;13.00;9.83;;;;;;;;;;2032931;29;20200;-66
2021/04/10 01:29:02;;;;;;;13.27;9.80;;;;;;;;;;2033884;29;20180;-65
2021/04/10 01:30:22;;;;;;;18.70;10.05;;;;;;;;;;2040684;29;20223;-64
2021/04/10 01:31:27;;;;;;;17.03;10.90;;;;;;;;;;2040726;29;20168;-65
2021/04/10 01:32:29;;;;;;;14.55;10.55;;;;;;;;;;2031929;29;20176;-65
2021/04/10 01:33:32;;;;;;;12.80;11.02;;;;;;;;;;2038175;29;20168;-65
2021/04/10 01:34:44;;;;;;;14.97;10.53;;;;;;;;;;2040380;29;20742;-64
2021/04/10 01:35:50;;;;;;;15.82;12.02;;;;;;;;;;2049293;29;20249;-65
2021/04/10 01:36:52;;;;;;;15.15;11.05;;;;;;;;;;2042148;29;20266;-64
2021/04/10 01:37:53;;;;;;;22.50;14.13;;;;;;;;;;2040983;29;20592;-64
2021/04/10 01:38:54;;;;;;;17.83;11.40;;;;;;;;;;2040454;29;20828;-64
2021/04/10 01:39:57;;;;;;;16.15;11.05;;;;;;;;;;2048460;29;20195;-64
2021/04/10 01:41:02;;;;;;;13.97;10.87;;;;;;;;;;2032980;29;20180;-64
2021/04/10 01:42:03;;;;;;;11.40;9.98;;;;;;;;;;2026713;29;20276;-64
2021/04/10 01:43:05;;;;;;;15.00;10.88;;;;;;;;;;2033218;29;20684;-62
2021/04/10 01:44:06;;;;;;;16.60;11.47;;;;;;;;;;2040560;29;20168;-64
2021/04/10 01:45:08;;;;;;;18.77;11.15;;;;;;;;;;2040617;29;20183;-63
2021/04/10 01:46:09;;;;;;;14.75;11.23;;;;;;;;;;2040392;29;20310;-64
2021/04/10 01:47:12;;;;;;;15.43;10.90;;;;;;;;;;2049173;29;20175;-65
2021/04/10 01:48:14;;;;;;;15.67;11.47;;;;;;;;;;2048388;29;20179;-64
2021/04/10 01:49:15;;;;;;;13.90;10.87;;;;;;;;;;2041013;29;20230;-63
2021/04/10 01:50:16;;;;;;;16.50;11.10;;;;;;;;;;2040642;29;20227;-65
2021/04/10 01:51:18;;;;;;;16.70;10.73;;;;;;;;;;2033378;29;20211;-64
2021/04/10 01:52:19;;;;;;;16.47;11.07;;;;;;;;;;2033436;29;20753;-65
2021/04/10 01:53:20;;;;;;;16.20;11.75;;;;;;;;;;2040712;29;20176;-65
2021/04/10 01:54:22;;;;;;;16.98;12.07;;;;;;;;;;2048149;29;20162;-61
2021/04/10 01:55:23;;;;;;;15.95;10.75;;;;;;;;;;2041125;29;20263;-66
2021/04/10 01:56:27;;;;;;;18.63;11.32;;;;;;;;;;2040957;29;20179;-66
2021/04/10 01:57:30;;;;;;;14.83;9.63;;;;;;;;;;2041329;29;20615;-65
2021/04/10 01:58:34;;;;;;;12.00;9.87;;;;;;;;;;2040873;29;20168;-65
2021/04/10 01:59:38;;;;;;;14.40;11.43;;;;;;;;;;2032727;29;20564;-65
2021/04/10 02:00:40;;;;;;;17.02;11.13;;;;;;;;;;2041389;29;20172;-65
2021/04/10 02:01:47;;;;;;;13.57;10.23;;;;;;;;;;2040764;29;20181;-65
2021/04/10 02:02:49;;;;;;;15.82;10.55;;;;;;;;;;2033747;29;20200;-65
2021/04/10 02:03:56;;;;;;;14.50;10.15;;;;;;;;;;2033410;29;20231;-66
2021/04/10 02:05:01;;;;;;;14.80;10.48;;;;;;;;;;2040144;29;20180;-65
2021/04/10 02:06:03;;;;;;;14.53;10.20;;;;;;;;;;2034857;29;20545;-65
2021/04/10 02:07:12;;;;;;;17.13;10.10;;;;;;;;;;2041905;29;20215;-66
2021/04/10 02:08:16;;;;;;;13.95;10.15;;;;;;;;;;2040996;29;20619;-64
2021/04/10 02:09:17;;;;;;;15.83;10.53;;;;;;;;;;2041049;29;20187;-65
2021/04/10 02:10:26;;;;;;;13.55;10.50;;;;;;;;;;2047195;29;20611;-65
2021/04/10 02:11:35;;;;;;;11.63;9.20;;;;;;;;;;2048964;29;20159;-64
2021/04/10 02:12:41;;;;;;;11.10;9.47;;;;;;;;;;2048102;29;20233;-65
2021/04/10 02:13:54;;;;;;;12.20;8.83;;;;;;;;;;2034632;29;20250;-65
2021/04/10 02:15:04;;;;;;;12.70;9.20;;;;;;;;;;2042247;29;20596;-65
2021/04/10 02:16:05;;;;;;;12.27;9.83;;;;;;;;;;2043039;29;20172;-60
2021/04/10 02:17:09;;;;;;;12.10;9.90;;;;;;;;;;2048231;29;21042;-64
2021/04/10 02:18:19;;;;;;;12.53;9.77;;;;;;;;;;2047695;29;20257;-65
2021/04/10 02:19:20;;;;;;;14.77;9.73;;;;;;;;;;2040805;29;20680;-65
2021/04/10 02:20:29;;;;;;;12.10;9.60;;;;;;;;;;2047677;29;20182;-64
2021/04/10 02:21:32;;;;;;;13.57;9.97;;;;;;;;;;2041104;29;20172;-64
2021/04/10 02:22:33;;;;;;;16.40;8.97;;;;;;;;;;2047996;29;20198;-62
2021/04/10 02:23:42;;;;;;;11.17;8.80;;;;;;;;;;2048486;29;20597;-65
2021/04/10 02:24:52;;;;;;;16.50;9.30;;;;;;;;;;2033275;29;20215;-63
2021/04/10 02:25:52;;;;;;;12.33;9.07;;;;;;;;;;2041052;29;20257;-65
2021/04/10 02:26:53;;;;;;;11.87;8.33;;;;;;;;;;2039886;29;20179;-64
2021/04/10 02:27:57;;;;;;;12.73;9.13;;;;;;;;;;2033185;29;20176;-64
2021/04/10 02:29:00;;;;;;;12.57;8.30;;;;;;;;;;2040325;29;20266;-60
2021/04/10 02:30:02;;;;;;;11.57;8.47;;;;;;;;;;2040556;29;20192;-64
2021/04/10 02:31:05;;;;;;;15.30;9.67;;;;;;;;;;2033022;29;20176;-64
2021/04/10 02:32:11;;;;;;;13.73;9.60;;;;;;;;;;2039369;29;20550;-64
2021/04/10 02:33:21;;;;;;;15.95;8.30;;;;;;;;;;2035680;29;20696;-64
2021/04/10 02:34:24;;;;;;;13.37;8.63;;;;;;;;;;2040172;29;20258;-64
2021/04/10 02:35:29;;;;;;;11.67;8.50;;;;;;;;;;2037648;29;20660;-64
2021/04/10 02:36:31;;;;;;;14.48;8.93;;;;;;;;;;2039855;29;20263;-64
2021/04/10 02:37:33;;;;;;;13.27;9.33;;;;;;;;;;2033050;29;20180;-65
2021/04/10 02:38:37;;;;;;;13.00;8.57;;;;;;;;;;2032627;29;20602;-64
2021/04/10 02:40:41;;;;;;;12.33;8.63;;;;;;;;;;2032144;29;20208;-58
2021/04/10 02:41:44;;;;;;;21.30;9.33;;;;;;;;;;2022096;29;20233;-57
2021/04/10 02:42:46;;;;;;;14.03;8.37;;;;;;;;;;2015769;29;20214;-55
2021/04/10 02:43:55;;;;;;;15.33;8.30;;;;;;;;;;2022634;29;20189;-57
2021/04/10 02:44:57;;;;;;;13.07;7.97;;;;;;;;;;2030974;29;20185;-56
2021/04/10 02:46:00;;;;;;;11.63;7.43;;;;;;;;;;2032635;29;20233;-56
2021/04/10 02:47:02;;;;;;;12.97;8.67;;;;;;;;;;2032707;29;20209;-57
2021/04/10 02:48:07;;;;;;;11.67;8.17;;;;;;;;;;2037085;29;20181;-57
2021/04/10 02:49:13;;;;;;;11.63;7.33;;;;;;;;;;2037998;29;20807;-56
2021/04/10 02:50:17;;;;;;;12.70;8.87;;;;;;;;;;2035985;29;20729;-57
2021/04/10 02:51:19;;;;;;;10.50;7.80;;;;;;;;;;2038066;29;20212;-56
2021/04/10 02:52:25;;;;;;;12.20;8.20;;;;;;;;;;2047777;29;20308;-58
2021/04/10 02:53:25;;;;;;;13.67;8.00;;;;;;;;;;2038420;29;20253;-57
2021/04/10 02:54:30;;;;;;;10.17;7.70;;;;;;;;;;2046522;29;20182;-54
2021/04/10 02:55:32;;;;;;;12.25;8.00;;;;;;;;;;2046433;29;20176;-59
2021/04/10 02:56:38;;;;;;;13.05;7.80;;;;;;;;;;2046226;29;20743;-55
2021/04/10 02:57:39;;;;;;;11.77;7.63;;;;;;;;;;2039057;29;20184;-58
2021/04/10 02:58:41;;;;;;;11.83;8.03;;;;;;;;;;2045722;29;20175;-58
2021/04/10 02:59:47;;;;;;;12.30;7.87;;;;;;;;;;2053170;29;20198;-60
2021/04/10 03:00:49;;;;;;;11.93;7.30;;;;;;;;;;2038880;29;20615;-58
2021/04/10 03:01:56;;;;;;;8.73;7.60;;;;;;;;;;2038243;29;20649;-57
2021/04/10 03:02:57;;;;;;;14.40;6.97;;;;;;;;;;2038742;29;20184;-59
2021/04/10 03:03:59;;;;;;;11.57;6.93;;;;;;;;;;2045439;29;20215;-57
2021/04/10 03:05:01;;;;;;;10.10;7.63;;;;;;;;;;2046020;29;20199;-54
2021/04/10 03:06:02;;;;;;;11.80;7.50;;;;;;;;;;2038393;29;20169;-56
2021/04/10 03:07:06;;;;;;;10.53;7.20;;;;;;;;;;2039752;29;20206;-55
2021/04/10 03:08:07;;;;;;;12.70;6.97;;;;;;;;;;2044420;29;20187;-56
2021/04/10 03:09:09;;;;;;;10.47;7.30;;;;;;;;;;2040905;29;20184;-55
2021/04/10 03:10:11;;;;;;;15.07;8.17;;;;;;;;;;2047046;29;20200;-56
2021/04/10 03:11:11;;;;;;;12.67;7.70;;;;;;;;;;2047200;29;20648;-56
2021/04/10 03:12:17;;;;;;;12.67;7.67;;;;;;;;;;2049724;28;20179;-55
2021/04/10 03:13:19;;;;;;;10.87;7.03;;;;;;;;;;2044756;29;20184;-58
2021/04/10 03:14:21;;;;;;;10.33;6.87;;;;;;;;;;2030050;29;20722;-58
2021/04/10 03:15:22;;;;;;;10.80;7.07;;;;;;;;;;2037403;29;20227;-57
2021/04/10 03:16:31;;;;;;;15.03;8.13;;;;;;;;;;2040375;29;20190;-58
2021/04/10 03:17:38;;;;;;;12.73;6.70;;;;;;;;;;2042800;29;20179;-54
2021/04/10 03:18:43;;;;;;;8.93;6.97;;;;;;;;;;2044998;29;20175;-57
2021/04/10 03:19:46;;;;;;;12.77;7.23;;;;;;;;;;2053225;29;20217;-58
2021/04/10 03:20:48;;;;;;;9.60;6.90;;;;;;;;;;2031912;29;20193;-58
2021/04/10 03:21:48;;;;;;;10.73;6.60;;;;;;;;;;2035817;29;20201;-59
2021/04/10 03:22:49;;;;;;;11.23;6.93;;;;;;;;;;2037990;29;20211;-58
2021/04/10 03:23:55;;;;;;;13.43;7.40;;;;;;;;;;2029352;29;20180;-55
2021/04/10 03:24:57;;;;;;;8.20;6.20;;;;;;;;;;2037957;29;20208;-56
2021/04/10 03:25:58;;;;;;;13.37;7.70;;;;;;;;;;2039175;29;20176;-54
2021/04/10 03:26:59;;;;;;;16.13;7.40;;;;;;;;;;2039956;29;20208;-54
2021/04/10 03:28:04;;;;;;;11.38;6.75;;;;;;;;;;2046555;29;20240;-56
2021/04/10 03:29:05;;;;;;;10.70;6.70;;;;;;;;;;2040362;29;20176;-55
2021/04/10 03:30:12;;;;;;;9.73;6.37;;;;;;;;;;2033641;29;20275;-59
2021/04/10 03:31:19;;;;;;;10.60;6.57;;;;;;;;;;2035593;29;20185;-57
2021/04/10 03:32:20;;;;;;;12.40;6.50;;;;;;;;;;2030205;29;20184;-59
2021/04/10 03:33:24;;;;;;;10.27;6.13;;;;;;;;;;2036891;29;20191;-57
2021/04/10 03:34:24;;;;;;;12.67;7.00;;;;;;;;;;2037544;29;20244;-54
2021/04/10 03:35:27;;;;;;;12.70;6.57;;;;;;;;;;2037374;29;20176;-59
2021/04/10 03:36:29;;;;;;;9.73;6.40;;;;;;;;;;2030180;29;20193;-57
2021/04/10 03:37:30;;;;;;;10.17;6.57;;;;;;;;;;2038043;29;20200;-56
2021/04/10 03:38:31;;;;;;;10.87;5.90;;;;;;;;;;2038133;29;20691;-59
2021/04/10 03:39:32;;;;;;;11.90;7.13;;;;;;;;;;2037626;29;20185;-58
2021/04/10 03:40:35;;;;;;;10.97;6.37;;;;;;;;;;2038406;29;20211;-56
2021/04/10 03:41:36;;;;;;;12.50;6.40;;;;;;;;;;2029833;29;20181;-58
2021/04/10 03:42:42;;;;;;;11.03;6.33;;;;;;;;;;2044219;29;20178;-55
2021/04/10 03:43:45;;;;;;;9.53;6.03;;;;;;;;;;2037387;29;20548;-59
2021/04/10 03:44:46;;;;;;;11.20;6.17;;;;;;;;;;2046209;29;20176;-59
2021/04/10 03:45:46;;;;;;;11.47;6.27;;;;;;;;;;2047758;28;20276;-56
2021/04/10 03:46:54;;;;;;;10.93;6.03;;;;;;;;;;2038630;29;20216;-60
2021/04/10 03:47:55;;;;;;;7.67;5.70;;;;;;;;;;2044814;29;20187;-57
2021/04/10 03:48:58;;;;;;;16.00;6.87;;;;;;;;;;2045295;29;20184;-57
2021/04/10 03:50:02;;;;;;;9.77;6.13;;;;;;;;;;2036890;29;20208;-58
2021/04/10 03:51:03;;;;;;;12.03;6.40;;;;;;;;;;2036492;29;20180;-58
2021/04/10 03:52:12;;;;;;;10.27;6.10;;;;;;;;;;2043461;29;20183;-61
2021/04/10 03:53:12;;;;;;;11.27;5.82;;;;;;;;;;2041000;29;20176;-57
2021/04/10 03:54:12;;;;;;;14.17;6.10;;;;;;;;;;2037429;29;20247;-60
2021/04/10 03:55:17;;;;;;;10.67;6.00;;;;;;;;;;2045267;29;20187;-59
2021/04/10 03:56:17;;;;;;;16.93;6.03;;;;;;;;;;2044709;29;20182;-59
2021/04/10 03:57:18;;;;;;;11.37;6.00;;;;;;;;;;2030736;29;20188;-57
2021/04/10 03:58:18;;;;;;;11.27;6.57;;;;;;;;;;2030700;29;20238;-61
2021/04/10 03:59:19;;;;;;;10.97;5.90;;;;;;;;;;2029918;29;20168;-60
2021/04/10 04:00:25;;;;;;;11.33;5.70;;;;;;;;;;2030565;29;20227;-60
2021/04/10 04:01:30;;;;;;;8.57;5.80;;;;;;;;;;2042922;29;20170;-61
2021/04/10 04:02:32;;;;;;;8.93;5.77;;;;;;;;;;2043016;29;20190;-58
2021/04/10 04:03:32;;;;;;;10.87;6.43;;;;;;;;;;2043554;29;20250;-60
2021/04/10 04:04:33;;;;;;;13.27;5.90;;;;;;;;;;2043932;29;20168;-58
2021/04/10 04:05:33;;;;;;;12.33;5.90;;;;;;;;;;2038718;29;20245;-59
2021/04/10 04:06:33;;;;;;;11.17;6.50;;;;;;;;;;2045063;29;20215;-60
2021/04/10 04:07:34;;;;;;;10.77;5.70;;;;;;;;;;2037457;29;20168;-59
2021/04/10 04:08:34;;;;;;;16.33;6.63;;;;;;;;;;2037852;29;20617;-60
2021/04/10 04:09:35;;;;;;;13.47;5.80;;;;;;;;;;2037169;29;20184;-60
2021/04/10 04:10:35;;;;;;;9.73;6.10;;;;;;;;;;2043294;29;20196;-59
2021/04/10 04:11:35;;;;;;;16.43;6.80;;;;;;;;;;2039992;29;20209;-59
2021/04/10 04:12:35;;;;;;;11.43;6.63;;;;;;;;;;2051959;29;20171;-59
2021/04/10 04:13:36;;;;;;;14.83;6.33;;;;;;;;;;2052958;29;20175;-59
2021/04/10 04:14:37;;;;;;;11.67;6.30;;;;;;;;;;2045408;29;20259;-60
2021/04/10 04:15:37;;;;;;;13.03;7.10;;;;;;;;;;2041599;29;20665;-58
2021/04/10 04:16:37;;;;;;;11.43;6.03;;;;;;;;;;2044378;29;20243;-59
2021/04/10 04:17:37;;;;;;;10.07;6.00;;;;;;;;;;2039745;29;20169;-58
2021/04/10 04:18:38;;;;;;;9.00;6.03;;;;;;;;;;2044415;29;20168;-59
2021/04/10 04:19:38;;;;;;;9.60;5.70;;;;;;;;;;2038656;29;20176;-56
2021/04/10 04:20:38;;;;;;;10.73;6.13;;;;;;;;;;2052239;29;20183;-58
2021/04/10 04:21:39;;;;;;;11.90;6.50;;;;;;;;;;2053787;29;20175;-58
2021/04/10 04:22:39;;;;;;;9.83;6.33;;;;;;;;;;2044219;29;20180;-60
2021/04/10 04:23:39;;;;;;;13.97;6.87;;;;;;;;;;2044470;29;20196;-60
2021/04/10 04:24:39;;;;;;;15.60;7.03;;;;;;;;;;2044927;29;20176;-59
2021/04/10 04:25:39;;;;;;;12.40;6.10;;;;;;;;;;2039489;29;20192;-58
2021/04/10 04:26:40;;;;;;;11.50;6.73;;;;;;;;;;2045243;29;20192;-60
2021/04/10 04:27:40;;;;;;;10.27;6.10;;;;;;;;;;2045149;29;20274;-59
2021/04/10 04:28:40;;;;;;;15.13;7.27;;;;;;;;;;2036716;29;20179;-61
2021/04/10 04:29:41;;;;;;;13.50;6.23;;;;;;;;;;2039992;29;20679;-59
2021/04/10 04:30:41;;;;;;;15.03;6.70;;;;;;;;;;2044975;29;20248;-57
2021/04/10 04:31:42;;;;;;;15.93;6.90;;;;;;;;;;2038044;29;20200;-62
2021/04/10 04:32:42;;;;;;;10.37;6.40;;;;;;;;;;2044521;29;20207;-59
2021/04/10 04:33:42;;;;;;;13.80;6.93;;;;;;;;;;2044886;29;20515;-61
2021/04/10 04:34:43;;;;;;;12.13;6.33;;;;;;;;;;2045076;29;20235;-58
2021/04/10 04:35:43;;;;;;;13.07;6.50;;;;;;;;;;2045369;29;20178;-58
2021/04/10 04:36:43;;;;;;;11.03;6.50;;;;;;;;;;2045518;29;20263;-61
2021/04/10 04:37:43;;;;;;;15.87;7.20;;;;;;;;;;2038452;29;20865;-60
2021/04/10 04:38:44;;;;;;;16.93;7.83;;;;;;;;;;2045606;29;20239;-61
2021/04/10 04:39:44;;;;;;;12.33;6.73;;;;;;;;;;2045415;29;20172;-61
2021/04/10 04:40:44;;;;;;;11.67;6.53;;;;;;;;;;2046405;29;20172;-58
2021/04/10 04:41:45;;;;;;;15.27;7.07;;;;;;;;;;2046068;29;20726;-60
2021/04/10 04:42:45;;;;;;;16.43;6.70;;;;;;;;;;2039063;29;20183;-57
2021/04/10 04:43:45;;;;;;;14.90;7.37;;;;;;;;;;2045207;29;20665;-58
2021/04/10 04:44:45;;;;;;;10.57;7.00;;;;;;;;;;2044555;29;20191;-59
2021/04/10 04:45:46;;;;;;;15.83;7.73;;;;;;;;;;2038004;29;20189;-58
2021/04/10 04:46:46;;;;;;;10.43;7.23;;;;;;;;;;2037607;29;20526;-58
2021/04/10 04:47:46;;;;;;;17.57;8.90;;;;;;;;;;2045022;29;20602;-59
2021/04/10 04:48:47;;;;;;;13.23;7.13;;;;;;;;;;2037742;29;20212;-60
2021/04/10 04:49:47;;;;;;;14.87;7.77;;;;;;;;;;2044611;29;20180;-56
2021/04/10 04:50:47;;;;;;;16.20;7.87;;;;;;;;;;2042219;29;20187;-57
2021/04/10 04:51:47;;;;;;;13.53;8.50;;;;;;;;;;2037911;29;20201;-61
2021/04/10 04:52:48;;;;;;;16.03;7.87;;;;;;;;;;2038059;29;20188;-60
2021/04/10 04:53:48;;;;;;;10.90;7.43;;;;;;;;;;2045371;29;20179;-58
2021/04/10 04:54:48;;;;;;;17.20;8.40;;;;;;;;;;2046200;29;20604;-60
2021/04/10 04:55:49;;;;;;;11.53;7.87;;;;;;;;;;2039730;29;20220;-59
2021/04/10 04:56:49;;;;;;;15.73;7.83;;;;;;;;;;2043714;29;20247;-56
2021/04/10 04:57:49;;;;;;;11.17;7.07;;;;;;;;;;2047040;29;20174;-56
2021/04/10 04:58:49;;;;;;;11.90;6.60;;;;;;;;;;2039876;29;20207;-60
2021/04/10 04:59:50;;;;;;;13.23;7.70;;;;;;;;;;2039214;29;20239;-57
2021/04/10 05:00:50;;;;;;;11.97;7.13;;;;;;;;;;2037741;29;20184;-59
2021/04/10 05:01:50;;;;;;;10.97;7.13;;;;;;;;;;2038612;29;20192;-59
2021/04/10 05:02:51;;;;;;;12.90;7.83;;;;;;;;;;2045944;29;20163;-57
2021/04/10 05:03:51;;;;;;;13.30;6.83;;;;;;;;;;2038502;29;20258;-58
2021/04/10 05:04:51;;;;;;;14.00;7.53;;;;;;;;;;2044918;29;20183;-59
2021/04/10 05:05:52;;;;;;;15.67;8.07;;;;;;;;;;2053558;29;20191;-59
2021/04/10 05:06:52;;;;;;;11.17;7.70;;;;;;;;;;2039241;29;20184;-58
2021/04/10 05:07:52;;;;;;;11.67;7.50;;;;;;;;;;2046265;29;20190;-60
2021/04/10 05:08:52;;;;;;;14.70;7.73;;;;;;;;;;2038533;29;20207;-58
2021/04/10 05:09:53;;;;;;;13.13;8.90;;;;;;;;;;2037797;29;20192;-59
2021/04/10 05:10:53;;;;;;;16.13;8.50;;;;;;;;;;2038246;29;20203;-61
2021/04/10 05:11:53;;;;;;;14.20;8.27;;;;;;;;;;2038804;29;20649;-58
2021/04/10 05:12:54;;;;;;;13.97;7.77;;;;;;;;;;2038187;29;20204;-60
2021/04/10 05:13:54;;;;;;;13.93;9.00;;;;;;;;;;2036937;29;20191;-59
2021/04/10 05:14:54;;;;;;;11.50;8.47;;;;;;;;;;2044895;29;20203;-59
2021/04/10 05:15:55;;;;;;;11.83;8.03;;;;;;;;;;2037707;29;20189;-58
2021/04/10 05:16:56;;;;;;;12.03;7.43;;;;;;;;;;2043008;29;20204;-60
2021/04/10 05:17:56;;;;;;;15.57;8.57;;;;;;;;;;2044711;29;20230;-59
2021/04/10 05:18:56;;;;;;;13.53;7.73;;;;;;;;;;2038738;29;20236;-58
2021/04/10 05:19:56;;;;;;;13.03;8.17;;;;;;;;;;2045961;29;20202;-59
2021/04/10 05:20:57;;;;;;;14.40;8.90;;;;;;;;;;2049049;29;20191;-59
2021/04/10 05:21:57;;;;;;;15.97;9.00;;;;;;;;;;2045660;29;21607;-60
2021/04/10 05:22:57;;;;;;;17.07;8.27;;;;;;;;;;2038253;29;20189;-57
2021/04/10 05:23:58;;;;;;;17.23;8.77;;;;;;;;;;2043365;29;20168;-56
2021/04/10 05:24:58;;;;;;;15.43;8.80;;;;;;;;;;2031102;29;20191;-57
2021/04/10 05:25:58;;;;;;;15.10;8.57;;;;;;;;;;2038491;29;20196;-54
2021/04/10 05:26:58;;;;;;;14.20;8.87;;;;;;;;;;2043701;29;20187;-59
2021/04/10 05:27:59;;;;;;;15.50;9.20;;;;;;;;;;2039374;29;20181;-57
2021/04/10 05:28:59;;;;;;;16.43;8.97;;;;;;;;;;2039203;29;20289;-56
2021/04/10 05:30:00;;;;;;;13.90;8.80;;;;;;;;;;2037198;29;20206;-57
2021/04/10 05:31:01;;;;;;;13.47;8.53;;;;;;;;;;2037230;29;20187;-58
2021/04/10 05:32:02;;;;;;;13.73;8.90;;;;;;;;;;2038280;29;20711;-58
2021/04/10 05:33:02;;;;;;;13.13;9.03;;;;;;;;;;2038894;29;20238;-58
2021/04/10 05:34:02;;;;;;;13.07;8.87;;;;;;;;;;2038578;29;20245;-60
2021/04/10 05:35:03;;;;;;;16.20;9.40;;;;;;;;;;2039526;29;20181;-55
2021/04/10 05:36:03;;;;;;;15.43;9.50;;;;;;;;;;2038936;29;20192;-58
2021/04/10 05:37:03;;;;;;;13.60;9.07;;;;;;;;;;2045727;29;20207;-61
2021/04/10 05:38:04;;;;;;;18.30;9.47;;;;;;;;;;2046645;29;20168;-58
2021/04/10 05:39:04;;;;;;;16.40;9.73;;;;;;;;;;2038423;29;20236;-60
2021/04/10 05:40:05;;;;;;;18.53;10.40;;;;;;;;;;2030324;29;20209;-60
2021/04/10 05:41:06;;;;;;;23.47;10.80;;;;;;;;;;2037373;29;20305;-59
2021/04/10 05:42:09;;;;;;;13.43;9.60;;;;;;;;;;2047073;29;20171;-60
2021/04/10 05:43:09;;;;;;;19.90;10.30;;;;;;;;;;2043117;29;20182;-60
2021/04/10 05:44:09;;;;;;;17.67;10.03;;;;;;;;;;2038136;29;20180;-58
2021/04/10 05:45:10;;;;;;;16.37;10.37;;;;;;;;;;2037459;29;20194;-58
2021/04/10 05:46:11;;;;;;;25.27;11.07;;;;;;;;;;2037963;29;20180;-61
2021/04/10 05:47:11;;;;;;;18.00;11.70;;;;;;;;;;2038184;29;20216;-56
2021/04/10 05:48:11;;;;;;;17.17;11.47;;;;;;;;;;2038749;29;20172;-58
2021/04/10 05:49:11;;;;;;;17.70;11.00;;;;;;;;;;2038283;29;20219;-58
2021/04/10 05:50:12;;;;;;;20.57;11.60;;;;;;;;;;2039610;29;20203;-58
2021/04/10 05:51:12;;;;;;;17.30;10.13;;;;;;;;;;2040585;29;20234;-59
2021/04/10 05:52:12;;;;;;;19.77;11.33;;;;;;;;;;2045553;29;20727;-58
2021/04/10 05:53:13;;;;;;;19.83;11.13;;;;;;;;;;2040144;29;20176;-56
2021/04/10 05:54:13;;;;;;;19.63;10.93;;;;;;;;;;2031414;29;20724;-59
2021/04/10 05:55:14;;;;;;;17.93;10.97;;;;;;;;;;2030539;29;20189;-57
2021/04/10 05:56:14;;;;;;;23.83;10.97;;;;;;;;;;2031425;29;20205;-60
2021/04/10 05:57:14;;;;;;;18.87;11.00;;;;;;;;;;2037642;29;20201;-60
2021/04/10 05:58:14;;;;;;;15.80;9.97;;;;;;;;;;2038260;29;20180;-57
2021/04/10 05:59:15;;;;;;;16.17;10.27;;;;;;;;;;2041772;29;20175;-58
2021/04/10 06:00:15;;;;;;;17.00;10.87;;;;;;;;;;2042407;29;20884;-57
2021/04/10 06:01:16;;;;;;;20.50;11.23;;;;;;;;;;2041931;29;20167;-60
2021/04/10 06:02:16;;;;;;;17.83;10.60;;;;;;;;;;2053859;29;20199;-58
2021/04/10 06:03:17;;;;;;;18.67;10.73;;;;;;;;;;2053688;29;20214;-58
2021/04/10 06:04:17;;;;;;;17.27;10.97;;;;;;;;;;2043702;29;20172;-59
2021/04/10 06:05:19;;;;;;;19.87;10.93;;;;;;;;;;2027582;29;20178;-59
2021/04/10 06:06:19;;;;;;;15.65;10.52;;;;;;;;;;2030621;29;20200;-59